createdAt,value
2022-11-08T00:02:00.069Z,100102.00
2022-11-08T00:04:27.766Z,100112.84
2022-11-08T00:07:13.546Z,100104.81
2022-11-08T00:09:59.685Z,100107.28
2022-11-08T00:12:45.382Z,100103.97
2022-11-08T00:15:12.845Z,100110.16
2022-11-08T00:17:40.033Z,100111.25
2022-11-08T00:20:08.840Z,100110.69
2022-11-08T00:22:36.454Z,100105.97
2022-11-08T00:25:03.719Z,100101.91
2022-11-08T00:27:30.910Z,100109.16
2022-11-08T00:29:58.396Z,100110.59
2022-11-08T00:32:26.125Z,100107.25
2022-11-08T00:34:53.343Z,100113.47
2022-11-08T00:37:21.160Z,100107.06
2022-11-08T00:39:48.531Z,100105.47
2022-11-08T00:42:15.755Z,100099.69
2022-11-08T00:44:43.235Z,100106.62
2022-11-08T00:47:10.444Z,100106.13
2022-11-08T00:49:37.650Z,100104.87
2022-11-08T00:52:05.283Z,100096.81
2022-11-08T00:54:32.516Z,100102.59
2022-11-08T00:56:59.749Z,100109.88
2022-11-08T00:59:27.235Z,100102.25
2022-11-08T01:01:54.599Z,100102.75
2022-11-08T01:04:21.885Z,100099.97
2022-11-08T01:06:49.399Z,100090.59
2022-11-08T01:09:16.586Z,100091.34
2022-11-08T01:11:46.510Z,100100.50
2022-11-08T01:14:14.397Z,100095.63
2022-11-08T01:16:41.979Z,100097.87
2022-11-08T01:19:09.144Z,100094.56
2022-11-08T01:21:36.794Z,100096.00
2022-11-08T01:24:04.030Z,100088.97
2022-11-08T01:26:31.379Z,100091.84
2022-11-08T01:28:59.025Z,100094.56
2022-11-08T01:31:27.579Z,100089.66
2022-11-08T01:33:55.011Z,100085.38
2022-11-08T01:36:23.507Z,100087.25
2022-11-08T01:38:50.932Z,100091.59
2022-11-08T01:41:18.828Z,100091.94
2022-11-08T01:43:47.256Z,100102.13
2022-11-08T01:46:33.144Z,100088.44
2022-11-08T01:49:03.567Z,100095.53
2022-11-08T01:51:31.565Z,100091.84
2022-11-08T01:53:58.809Z,100088.31
2022-11-08T01:56:26.230Z,100084.25
2022-11-08T01:58:53.438Z,100091.78
2022-11-08T02:01:20.732Z,100077.34
2022-11-08T02:03:48.245Z,100079.06
2022-11-08T02:06:15.427Z,100072.44
2022-11-08T02:08:43.523Z,100069.00
2022-11-08T02:11:15.073Z,100068.31
2022-11-08T02:13:42.254Z,100072.41
2022-11-08T02:16:15.514Z,100069.50
2022-11-08T02:18:43.327Z,100069.28
2022-11-08T02:21:12.422Z,100080.53
2022-11-08T02:24:06.045Z,100072.81
2022-11-08T02:26:33.802Z,100074.72
2022-11-08T02:29:20.921Z,100078.59
2022-11-08T02:31:48.348Z,100075.63
2022-11-08T02:34:15.494Z,100075.28
2022-11-08T02:36:43.059Z,100077.16
2022-11-08T02:39:10.556Z,100074.28
2022-11-08T02:41:37.836Z,100074.59
2022-11-08T02:44:05.059Z,100081.03
2022-11-08T02:46:32.843Z,100080.16
2022-11-08T02:49:00.024Z,100080.19
2022-11-08T02:51:27.217Z,100074.03
2022-11-08T02:53:54.658Z,100085.44
2022-11-08T02:56:21.880Z,100081.66
2022-11-08T02:58:49.060Z,100083.69
2022-11-08T03:01:16.600Z,100087.97
2022-11-08T03:03:43.875Z,100088.09
2022-11-08T03:06:11.027Z,100087.56
2022-11-08T03:08:38.545Z,100089.03
2022-11-08T03:11:05.754Z,100087.34
2022-11-08T03:13:32.980Z,100089.81
2022-11-08T03:16:04.249Z,100086.91
2022-11-08T03:18:31.590Z,100086.50
2022-11-08T03:21:01.729Z,100098.41
2022-11-08T03:23:29.212Z,100088.84
2022-11-08T03:25:56.507Z,100090.88
2022-11-08T03:28:23.954Z,100088.84
2022-11-08T03:30:52.750Z,100085.66
2022-11-08T03:33:20.789Z,100092.50
2022-11-08T03:35:48.524Z,100093.47
2022-11-08T03:38:16.627Z,100086.78
2022-11-08T03:40:45.064Z,100092.38
2022-11-08T03:43:12.365Z,100099.69
2022-11-08T03:45:39.847Z,100095.59
2022-11-08T03:48:07.053Z,100096.66
2022-11-08T03:50:34.284Z,100098.47
2022-11-08T03:53:01.800Z,100093.78
2022-11-08T03:55:29.082Z,100092.81
2022-11-08T03:57:56.339Z,100091.41
2022-11-08T04:00:25.516Z,100096.66
2022-11-08T04:02:53.657Z,100093.88
2022-11-08T04:05:20.904Z,100092.59
2022-11-08T04:07:48.126Z,100097.84
2022-11-08T04:10:15.627Z,100093.03
2022-11-08T04:13:01.403Z,100095.50
2022-11-08T04:15:29.534Z,100085.94
2022-11-08T04:18:15.735Z,100089.47
2022-11-08T04:21:02.746Z,100091.63
2022-11-08T04:23:30.275Z,100090.34
2022-11-08T04:26:01.277Z,100095.28
2022-11-08T04:28:29.547Z,100091.22
2022-11-08T04:30:57.529Z,100085.19
2022-11-08T04:33:25.172Z,100088.13
2022-11-08T04:35:52.704Z,100083.91
2022-11-08T04:38:20.266Z,100082.97
2022-11-08T04:40:48.018Z,100078.97
2022-11-08T04:43:15.273Z,100076.84
2022-11-08T04:45:42.452Z,100076.53
2022-11-08T04:48:09.924Z,100076.22
2022-11-08T04:50:37.098Z,100077.50
2022-11-08T04:53:04.326Z,100074.59
2022-11-08T04:55:31.816Z,100068.41
2022-11-08T04:57:59.140Z,100072.25
2022-11-08T05:00:26.396Z,100072.47
2022-11-08T05:02:54.262Z,100072.06
2022-11-08T05:05:21.836Z,100073.75
2022-11-08T05:07:49.103Z,100073.31
2022-11-08T05:10:16.605Z,100061.44
2022-11-08T05:12:43.794Z,100070.87
2022-11-08T05:15:11.237Z,100079.66
2022-11-08T05:17:38.796Z,100083.06
2022-11-08T05:20:25.099Z,100085.09
2022-11-08T05:23:11.491Z,100086.06
2022-11-08T05:25:39.999Z,100082.62
2022-11-08T05:28:07.469Z,100087.44
2022-11-08T05:30:34.671Z,100090.12
2022-11-08T05:33:01.925Z,100089.91
2022-11-08T05:35:29.407Z,100091.19
2022-11-08T05:37:56.611Z,100095.56
2022-11-08T05:40:23.799Z,100097.06
2022-11-08T05:42:53.256Z,100102.44
2022-11-08T05:45:20.651Z,100107.78
2022-11-08T05:47:48.441Z,100101.91
2022-11-08T05:50:19.344Z,100106.50
2022-11-08T05:52:46.892Z,100100.50
2022-11-08T05:55:14.126Z,100100.09
2022-11-08T05:57:42.567Z,100108.00
2022-11-08T06:00:10.574Z,100109.75
2022-11-08T06:02:39.001Z,100099.94
2022-11-08T06:05:07.089Z,100098.13
2022-11-08T06:07:34.578Z,100095.84
2022-11-08T06:10:01.918Z,100103.03
2022-11-08T06:12:29.338Z,100102.53
2022-11-08T06:14:56.524Z,100105.44
2022-11-08T06:17:26.274Z,100113.25
2022-11-08T06:19:56.679Z,100106.91
2022-11-08T06:22:23.906Z,100117.75
2022-11-08T06:24:51.064Z,100127.09
2022-11-08T06:27:18.539Z,100126.44
2022-11-08T06:29:45.788Z,100121.81
2022-11-08T06:32:13.003Z,100118.69
2022-11-08T06:34:40.524Z,100123.72
2022-11-08T06:37:07.751Z,100115.69
2022-11-08T06:39:34.974Z,100118.69
2022-11-08T06:42:02.476Z,100119.00
2022-11-08T06:44:29.676Z,100119.00
2022-11-08T06:46:57.025Z,100125.75
2022-11-08T06:49:24.515Z,100120.12
2022-11-08T06:51:51.823Z,100123.78
2022-11-08T06:54:21.094Z,100127.31
2022-11-08T06:56:50.804Z,100129.34
2022-11-08T06:59:18.336Z,100132.13
2022-11-08T07:01:46.010Z,100133.09
2022-11-08T07:04:13.629Z,100131.25
2022-11-08T07:06:40.868Z,100126.06
2022-11-08T07:09:08.076Z,100129.28
2022-11-08T07:11:35.894Z,100137.75
2022-11-08T07:14:03.093Z,100137.38
2022-11-08T07:16:30.419Z,100145.59
2022-11-08T07:18:57.835Z,100137.66
2022-11-08T07:21:25.041Z,100133.50
2022-11-08T07:23:52.313Z,100137.97
2022-11-08T07:26:19.843Z,100137.62
2022-11-08T07:28:47.068Z,100135.28
2022-11-08T07:31:14.261Z,100131.97
2022-11-08T07:33:41.742Z,100136.28
2022-11-08T07:36:08.920Z,100132.16
2022-11-08T07:38:36.170Z,100136.13
2022-11-08T07:41:03.627Z,100149.63
2022-11-08T07:43:31.067Z,100151.50
2022-11-08T07:45:59.760Z,100145.34
2022-11-08T07:48:27.632Z,100145.78
2022-11-08T07:50:54.837Z,100154.56
2022-11-08T07:53:22.390Z,100145.28
2022-11-08T07:55:49.839Z,100154.00
2022-11-08T07:58:17.301Z,100149.44
2022-11-08T08:00:44.978Z,100146.66
2022-11-08T08:03:13.420Z,100156.34
2022-11-08T08:05:42.104Z,100144.44
2022-11-08T08:08:09.714Z,100147.97
2022-11-08T08:10:37.406Z,100148.34
2022-11-08T08:13:04.675Z,100144.50
2022-11-08T08:15:31.956Z,100149.97
2022-11-08T08:17:59.988Z,100154.47
2022-11-08T08:20:27.293Z,100149.94
2022-11-08T08:22:54.559Z,100151.38
2022-11-08T08:25:22.350Z,100146.09
2022-11-08T08:27:50.265Z,100157.94
2022-11-08T08:30:17.802Z,100148.91
2022-11-08T08:32:48.027Z,100153.25
2022-11-08T08:35:20.544Z,100153.25
2022-11-08T08:37:48.004Z,100150.47
2022-11-08T08:40:15.250Z,100152.97
2022-11-08T08:42:42.491Z,100157.16
2022-11-08T08:45:14.678Z,100154.44
2022-11-08T08:47:42.350Z,100156.97
2022-11-08T08:50:10.103Z,100166.28
2022-11-08T08:52:37.291Z,100162.69
2022-11-08T08:55:04.708Z,100159.25
2022-11-08T08:57:32.247Z,100155.28
2022-11-08T09:02:46.923Z,100159.69
2022-11-08T09:05:14.335Z,100160.81
2022-11-08T09:07:41.635Z,100160.31
2022-11-08T09:10:09.492Z,100161.31
2022-11-08T09:14:48.444Z,100163.25
2022-11-08T09:17:16.547Z,100169.31
2022-11-08T09:19:43.813Z,100183.22
2022-11-08T09:22:11.078Z,100183.63
2022-11-08T09:24:38.663Z,100191.38
2022-11-08T09:27:05.848Z,100189.75
2022-11-08T09:29:33.502Z,100187.19
2022-11-08T09:32:01.044Z,100190.06
2022-11-08T09:34:28.321Z,100183.56
2022-11-08T09:36:55.550Z,100186.81
2022-11-08T09:39:23.011Z,100186.59
2022-11-08T09:41:52.958Z,100176.81
2022-11-08T09:44:34.842Z,100181.62
2022-11-08T09:47:09.521Z,100176.09
2022-11-08T09:49:44.785Z,100184.75
2022-11-08T09:52:19.564Z,100175.50
2022-11-08T09:54:47.054Z,100174.59
2022-11-08T09:57:16.435Z,100175.38
2022-11-08T09:59:44.526Z,100173.66
2022-11-08T10:02:19.436Z,100168.44
2022-11-08T10:04:57.518Z,100178.31
2022-11-08T10:07:33.948Z,100179.53
2022-11-08T10:10:04.397Z,100169.75
2022-11-08T10:12:31.555Z,100172.59
2022-11-08T10:15:03.206Z,100173.56
2022-11-08T10:17:35.667Z,100165.19
2022-11-08T10:20:24.868Z,100161.28
2022-11-08T10:23:11.438Z,100158.25
2022-11-08T10:25:39.644Z,100157.03
2022-11-08T10:28:07.889Z,100157.03
2022-11-08T10:30:36.715Z,100149.00
2022-11-08T10:33:08.847Z,100153.75
2022-11-08T10:35:38.484Z,100140.44
2022-11-08T10:38:10.448Z,100141.69
2022-11-08T10:40:40.144Z,100141.41
2022-11-08T10:43:09.764Z,100142.88
2022-11-08T10:45:36.981Z,100138.59
2022-11-08T10:48:04.813Z,100122.47
2022-11-08T10:50:35.649Z,100122.31
2022-11-08T10:53:03.933Z,100118.34
2022-11-08T10:55:38.537Z,100122.91
2022-11-08T10:58:25.442Z,100117.97
2022-11-08T11:01:00.169Z,100132.09
2022-11-08T11:03:30.507Z,100125.97
2022-11-08T11:06:02.564Z,100116.62
2022-11-08T11:08:30.149Z,100119.78
2022-11-08T11:11:13.268Z,100122.37
2022-11-08T11:13:40.465Z,100121.94
2022-11-08T11:16:11.685Z,100116.38
2022-11-08T11:18:49.518Z,100117.59
2022-11-08T11:21:17.889Z,100113.47
2022-11-08T11:23:49.596Z,100118.56
2022-11-08T11:26:28.696Z,100122.97
2022-11-08T11:29:02.035Z,100115.41
2022-11-08T11:31:29.915Z,100108.69
2022-11-08T11:33:57.286Z,100114.75
2022-11-08T11:36:25.122Z,100111.87
2022-11-08T11:38:53.991Z,100115.91
2022-11-08T11:41:38.271Z,100113.66
2022-11-08T11:44:11.675Z,100111.34
2022-11-08T11:46:53.663Z,100110.31
2022-11-08T11:49:21.202Z,100108.84
2022-11-08T11:51:50.991Z,100107.19
2022-11-08T11:54:18.170Z,100111.87
2022-11-08T11:56:48.715Z,100110.91
2022-11-08T11:59:20.078Z,100104.13
2022-11-08T12:01:50.758Z,100105.56
2022-11-08T12:04:30.291Z,100101.69
2022-11-08T12:07:09.776Z,100096.69
2022-11-08T12:09:56.111Z,100086.56
2022-11-08T12:12:29.385Z,100090.50
2022-11-08T12:14:56.850Z,100091.16
2022-11-08T12:17:31.311Z,100088.66
2022-11-08T12:20:08.093Z,100079.34
2022-11-08T12:22:38.346Z,100074.22
2022-11-08T12:25:24.398Z,100074.44
2022-11-08T12:27:52.906Z,100074.28
2022-11-08T12:30:21.560Z,100074.31
2022-11-08T12:33:07.374Z,100066.63
2022-11-08T12:35:38.888Z,100059.34
2022-11-08T12:38:15.807Z,100053.41
2022-11-08T12:40:58.794Z,100056.75
2022-11-08T12:43:46.339Z,100048.78
2022-11-08T12:46:18.589Z,100050.72
2022-11-08T12:48:56.016Z,100055.25
2022-11-08T12:51:42.401Z,100051.25
2022-11-08T12:54:16.583Z,100045.09
2022-11-08T12:56:45.055Z,100046.87
2022-11-08T12:59:23.238Z,100037.75
2022-11-08T13:01:50.724Z,100046.87
2022-11-08T13:04:20.578Z,100042.81
2022-11-08T13:06:53.705Z,100040.25
2022-11-08T13:09:39.998Z,100041.31
2022-11-08T13:12:07.249Z,100038.31
2022-11-08T13:14:40.040Z,100040.97
2022-11-08T13:17:17.626Z,100040.41
2022-11-08T13:19:47.929Z,100040.63
2022-11-08T13:22:31.240Z,100034.59
2022-11-08T13:24:58.667Z,100027.94
2022-11-08T13:27:33.111Z,100036.59
2022-11-08T13:30:15.961Z,100034.84
2022-11-08T13:32:43.124Z,100030.47
2022-11-08T13:35:16.149Z,100036.06
2022-11-08T13:37:55.644Z,100027.47
2022-11-08T13:40:23.240Z,100034.03
2022-11-08T13:42:57.551Z,100030.03
2022-11-08T13:45:28.226Z,100021.66
2022-11-08T13:47:56.828Z,100021.91
2022-11-08T13:50:31.844Z,100014.41
2022-11-08T13:53:27.220Z,100020.16
2022-11-08T13:55:57.838Z,100010.13
2022-11-08T13:58:37.588Z,100008.44
2022-11-08T14:01:07.981Z,100014.66
2022-11-08T14:03:35.515Z,100017.84
2022-11-08T14:06:05.510Z,100020.19
2022-11-08T14:08:52.978Z,100018.78
2022-11-08T14:11:39.045Z,100021.75
2022-11-08T14:14:12.655Z,100016.81
2022-11-08T14:16:46.725Z,100012.12
2022-11-08T14:19:16.459Z,100010.63
2022-11-08T14:21:54.025Z,100012.12
2022-11-08T14:24:23.415Z,100006.81
2022-11-08T14:26:51.107Z,100008.72
2022-11-08T14:29:19.221Z,100010.34
2022-11-08T14:31:46.479Z,100009.13
2022-11-08T14:34:29.058Z,100012.53
2022-11-08T14:36:56.480Z,100018.72
2022-11-08T14:39:33.902Z,100006.97
2022-11-08T14:42:01.834Z,100009.69
2022-11-08T14:44:29.444Z,100010.06
2022-11-08T14:46:56.839Z,100013.66
2022-11-08T14:49:34.140Z,100006.44
2022-11-08T14:52:20.130Z,100006.06
2022-11-08T14:54:47.570Z,99997.88
2022-11-08T14:57:31.747Z,100002.44
2022-11-08T15:00:00.805Z,100003.44
2022-11-08T15:02:28.411Z,100001.59
2022-11-08T15:04:55.745Z,100005.81
2022-11-08T15:07:23.023Z,100005.81
2022-11-08T15:09:50.685Z,100013.16
2022-11-08T15:12:22.272Z,100013.66
2022-11-08T15:14:52.554Z,100018.28
2022-11-08T15:17:36.766Z,100012.38
2022-11-08T15:20:05.319Z,100010.28
2022-11-08T15:22:33.735Z,100014.69
2022-11-08T15:25:01.345Z,100005.50
2022-11-08T15:27:28.723Z,100003.31
2022-11-08T15:29:59.278Z,100005.88
2022-11-08T15:32:27.214Z,100009.53
2022-11-08T15:34:55.576Z,100019.87
2022-11-08T15:37:27.676Z,100017.88
2022-11-08T15:39:55.172Z,100024.63
2022-11-08T15:42:23.306Z,100025.03
2022-11-08T15:45:01.371Z,100035.59
2022-11-08T15:47:39.867Z,100031.09
2022-11-08T15:50:17.508Z,100035.28
2022-11-08T15:52:45.471Z,100031.81
2022-11-08T15:55:17.101Z,100031.81
2022-11-08T15:57:44.901Z,100035.25
2022-11-08T16:00:16.506Z,100029.25
2022-11-08T16:02:44.436Z,100029.03
2022-11-08T16:05:16.086Z,100020.75
2022-11-08T16:07:44.554Z,100018.28
2022-11-08T16:10:12.879Z,100024.66
2022-11-08T16:12:42.497Z,100027.88
2022-11-08T16:15:14.385Z,100026.63
2022-11-08T16:17:41.824Z,100026.56
2022-11-08T16:20:15.313Z,100035.88
2022-11-08T16:22:44.101Z,100027.56
2022-11-08T16:25:11.457Z,100035.28
2022-11-08T16:27:38.820Z,100034.88
2022-11-08T16:30:16.105Z,100034.09
2022-11-08T16:32:43.352Z,100034.63
2022-11-08T16:35:10.975Z,100038.78
2022-11-08T16:37:38.388Z,100036.09
2022-11-08T16:40:12.984Z,100039.72
2022-11-08T16:42:40.670Z,100036.94
2022-11-08T16:45:09.110Z,100037.94
2022-11-08T16:47:36.748Z,100040.81
2022-11-08T16:50:04.339Z,100046.50
2022-11-08T16:52:31.849Z,100044.66
2022-11-08T16:54:59.268Z,100053.44
2022-11-08T16:57:34.507Z,100053.13
2022-11-08T17:00:03.061Z,100052.84
2022-11-08T17:02:31.550Z,100050.13
2022-11-08T17:04:58.897Z,100044.50
2022-11-08T17:07:26.491Z,100054.66
2022-11-08T17:09:54.214Z,100047.94
2022-11-08T17:12:21.534Z,100056.12
2022-11-08T17:14:48.950Z,100053.47
2022-11-08T17:17:16.579Z,100051.63
2022-11-08T17:19:43.812Z,100053.87
2022-11-08T17:22:11.222Z,100047.56
2022-11-08T17:24:39.010Z,100056.66
2022-11-08T17:27:06.505Z,100057.84
2022-11-08T17:29:33.947Z,100058.84
2022-11-08T17:32:01.486Z,100057.25
2022-11-08T17:34:29.606Z,100052.00
2022-11-08T17:36:56.991Z,100061.00
2022-11-08T17:39:24.723Z,100059.75
2022-11-08T17:41:52.143Z,100054.19
2022-11-08T17:44:19.584Z,100055.97
2022-11-08T17:46:50.184Z,100044.41
2022-11-08T17:49:18.004Z,100047.81
2022-11-08T17:51:45.520Z,100050.03
2022-11-08T17:54:13.643Z,100053.19
2022-11-08T17:56:41.238Z,100051.50
2022-11-08T17:59:08.609Z,100041.59
2022-11-08T18:01:36.389Z,100049.16
2022-11-08T18:04:04.168Z,100046.16
2022-11-08T18:06:31.719Z,100045.75
2022-11-08T18:08:59.456Z,100049.03
2022-11-08T18:11:27.241Z,100052.44
2022-11-08T18:13:54.749Z,100046.12
2022-11-08T18:16:22.465Z,100038.66
2022-11-08T18:18:50.485Z,100047.34
2022-11-08T18:21:18.972Z,100041.88
2022-11-08T18:23:47.243Z,100042.69
2022-11-08T18:26:15.633Z,100048.22
2022-11-08T18:28:43.567Z,100037.69
2022-11-08T18:31:12.025Z,100045.16
2022-11-08T18:33:39.767Z,100030.50
2022-11-08T18:36:08.598Z,100031.72
2022-11-08T18:38:38.982Z,100033.91
2022-11-08T18:41:07.502Z,100037.34
2022-11-08T18:43:35.083Z,100037.69
2022-11-08T18:46:03.932Z,100034.88
2022-11-08T18:48:37.892Z,100035.38
2022-11-08T18:51:06.446Z,100037.59
2022-11-08T18:53:34.388Z,100036.44
2022-11-08T18:56:01.951Z,100043.06
2022-11-08T18:58:29.479Z,100038.56
2022-11-08T19:00:57.358Z,100041.25
2022-11-08T19:03:25.027Z,100040.75
2022-11-08T19:05:53.137Z,100024.25
2022-11-08T19:08:25.144Z,100030.00
2022-11-08T19:10:56.752Z,100022.19
2022-11-08T19:13:25.028Z,100035.72
2022-11-08T19:15:59.596Z,100034.03
2022-11-08T19:18:28.113Z,100034.50
2022-11-08T19:20:57.012Z,100034.66
2022-11-08T19:23:24.964Z,100027.44
2022-11-08T19:25:54.092Z,100027.41
2022-11-08T19:28:21.803Z,100035.50
2022-11-08T19:30:55.721Z,100034.50
2022-11-08T19:33:24.168Z,100033.84
2022-11-08T19:35:53.365Z,100039.12
2022-11-08T19:38:21.879Z,100042.97
2022-11-08T19:40:49.804Z,100044.50
2022-11-08T19:43:18.600Z,100047.94
2022-11-08T19:45:51.929Z,100052.00
2022-11-08T19:48:19.914Z,100053.66
2022-11-08T19:50:47.642Z,100059.69
2022-11-08T19:53:15.079Z,100060.03
2022-11-08T19:55:42.831Z,100054.91
2022-11-08T19:58:10.322Z,100056.16
2022-11-08T20:00:39.180Z,100058.94
2022-11-08T20:03:07.099Z,100056.59
2022-11-08T20:05:34.548Z,100053.22
2022-11-08T20:08:05.994Z,100054.16
2022-11-08T20:10:33.734Z,100059.06
2022-11-08T20:13:01.186Z,100066.03
2022-11-08T20:15:29.603Z,100066.63
2022-11-08T20:17:57.365Z,100066.50
2022-11-08T20:20:24.779Z,100059.81
2022-11-08T20:22:52.158Z,100065.28
2022-11-08T20:25:19.917Z,100070.44
2022-11-08T20:27:47.321Z,100067.13
2022-11-08T20:30:14.945Z,100073.00
2022-11-08T20:32:42.676Z,100070.44
2022-11-08T20:35:09.951Z,100068.72
2022-11-08T20:37:37.403Z,100070.91
2022-11-08T20:40:05.385Z,100071.28
2022-11-08T20:42:32.797Z,100065.03
2022-11-08T20:45:00.577Z,100073.78
2022-11-08T20:47:28.349Z,100071.28
2022-11-08T20:49:57.308Z,100068.72
2022-11-08T20:52:27.033Z,100075.97
2022-11-08T20:54:54.812Z,100068.91
2022-11-08T20:57:22.427Z,100075.25
2022-11-08T20:59:49.896Z,100074.69
2022-11-08T21:02:17.895Z,100078.34
2022-11-08T21:04:45.391Z,100085.19
2022-11-08T21:08:01.315Z,100073.12
2022-11-08T21:10:26.996Z,100083.47
2022-11-08T21:12:50.238Z,100076.81
2022-11-08T21:15:20.752Z,100074.03
2022-11-08T21:17:51.843Z,100073.56
2022-11-08T21:20:19.554Z,100073.47
2022-11-08T21:22:46.919Z,100072.53
2022-11-08T21:25:14.308Z,100075.38
2022-11-08T21:27:42.064Z,100080.66
2022-11-08T21:30:09.680Z,100077.56
2022-11-08T21:32:37.124Z,100087.38
2022-11-08T21:35:04.924Z,100080.72
2022-11-08T21:37:32.172Z,100086.19
2022-11-08T21:39:59.714Z,100080.44
2022-11-08T21:42:27.188Z,100080.50
2022-11-08T21:44:54.575Z,100082.59
2022-11-08T21:47:21.765Z,100084.87
2022-11-08T21:49:49.750Z,100079.50
2022-11-08T21:52:17.048Z,100078.41
2022-11-08T21:54:44.644Z,100080.81
2022-11-08T21:57:12.094Z,100081.41
2022-11-08T21:59:39.776Z,100072.56
2022-11-08T22:02:07.530Z,100067.09
2022-11-08T22:04:35.025Z,100071.75
2022-11-08T22:07:02.348Z,100077.06
2022-11-08T22:09:29.771Z,100070.78
2022-11-08T22:11:57.395Z,100078.81
2022-11-08T22:14:24.680Z,100070.69
2022-11-08T22:16:51.896Z,100067.66
2022-11-08T22:19:19.385Z,100069.31
2022-11-08T22:21:47.553Z,100078.72
2022-11-08T22:24:17.261Z,100063.97
2022-11-08T22:26:44.908Z,100058.31
2022-11-08T22:29:12.389Z,100066.38
2022-11-08T22:31:39.807Z,100067.69
2022-11-08T22:34:10.414Z,100059.03
2022-11-08T22:36:43.185Z,100062.25
2022-11-08T22:39:15.574Z,100063.31
2022-11-08T22:41:43.209Z,100066.63
2022-11-08T22:44:12.376Z,100059.94
2022-11-08T22:46:41.031Z,100060.28
2022-11-08T22:49:08.612Z,100059.41
2022-11-08T22:51:36.052Z,100064.16
2022-11-08T22:54:03.726Z,100062.59
2022-11-08T22:56:30.940Z,100066.50
2022-11-08T22:58:58.130Z,100059.94
2022-11-08T23:01:25.606Z,100059.56
2022-11-08T23:03:52.849Z,100065.09
2022-11-08T23:06:21.480Z,100061.69
2022-11-08T23:08:49.060Z,100057.56
2022-11-08T23:11:34.964Z,100058.56
2022-11-08T23:14:21.305Z,100057.25
2022-11-08T23:16:48.505Z,100071.78
2022-11-08T23:19:35.697Z,100057.56
2022-11-08T23:22:22.452Z,100064.84
2022-11-08T23:24:49.967Z,100051.22
2022-11-08T23:27:37.017Z,100058.63
2022-11-08T23:30:24.476Z,100056.53
2022-11-08T23:32:51.714Z,100057.97
2022-11-08T23:35:20.135Z,100057.31
2022-11-08T23:37:47.431Z,100056.31
2022-11-08T23:40:34.086Z,100061.41
2022-11-08T23:43:24.103Z,100055.34
2022-11-08T23:45:51.312Z,100054.56
2022-11-08T23:48:18.997Z,100052.75
2022-11-08T23:50:46.913Z,100053.34
2022-11-08T23:53:14.202Z,100046.34
2022-11-08T23:55:41.931Z,100051.44
2022-11-08T23:58:09.128Z,100047.84
